ADDS METAR Data INFO
IDs: Format: Raw Decoded Include TAF

Data at: 1012 UTC 14 Dec 2017

KDCY 140955Z AUTO 31007KT 10SM SCT031 M02/M07 A2993 RMK AO2 T10231070
KDCY 140935Z AUTO 32009KT 10SM CLR M02/M07 A2991 RMK AO2 T10211072
KDCY 140915Z AUTO 33009KT 10SM CLR M02/M07 A2990 RMK AO2 T10211075
KDCY 140855Z AUTO 32010KT 10SM CLR M02/M07 A2990 RMK AO2 T10191075
KDCY 140835Z AUTO 31012KT 10SM CLR M01/M07 A2989 RMK AO2 T10151074
KDCY 140815Z AUTO 34010G16KT 10SM SCT032 M01/M07 A2987 RMK AO2 T10101071
KDCY 140755Z AUTO 34018G23KT 10SM OVC032 00/M07 A2985 RMK AO2 T00001066
KDCY 140735Z AUTO 34016G24KT 10SM OVC032 01/M05 A2984 RMK AO2 T00061053
KDCY 140715Z AUTO 34015G20KT 10SM OVC026 01/M05 A2982 RMK AO2 T00131046
KDCY 140655Z AUTO 32013G20KT 10SM OVC026 02/M03 A2982 RMK AO2 T00161035
KDCY 140635Z AUTO 30012G21KT 10SM OVC025 02/M03 A2980 RMK AO2 T00171031
KDCY 140615Z AUTO 31012G20KT 10SM OVC023 02/M03 A2979 RMK AO2 T00161029
KDCY 140555Z AUTO 31015G27KT 10SM OVC027 02/M04 A2978 RMK AO2 T00201036 10081 20020 400851063
KDCY 140535Z AUTO 30014G23KT 10SM BKN027 OVC032 02/M04 A2977 RMK AO2 T00241038
KDCY 140515Z AUTO 30020G32KT 10SM OVC026 03/M03 A2976 RMK AO2 T00251035
KDCY 140455Z AUTO 30020G27KT 10SM OVC026 03/M03 A2974 RMK AO2 T00291028
KDCY 140435Z AUTO 32018G28KT 10SM OVC028 03/M03 A2973 RMK AO2 T00291031
KDCY 140415Z AUTO 32017G28KT 10SM OVC028 03/M03 A2972 RMK AO2 T00311029
KDCY 140355Z AUTO 32017G28KT 10SM OVC028 03/M03 A2971 RMK AO2 T00301028
KDCY 140335Z AUTO 31021G26KT 10SM OVC028 03/M03 A2971 RMK AO2 T00321029
KDCY 140315Z AUTO 32024G32KT 10SM OVC028 04/M03 A2970 RMK AO2 T00361027
KDCY 140255Z AUTO 31023G28KT 10SM BKN026 OVC036 04/M01 A2967 RMK AO2 T00431011
KDCY 140235Z AUTO 33013KT 10SM OVC036 05/M01 A2967 RMK AO2 T00481007
KDCY 140215Z AUTO 32016G19KT 10SM OVC032 05/00 A2965 RMK AO2 T00511004
KDCY 140155Z AUTO 32016G20KT 10SM OVC030 06/00 A2964 RMK AO2 T00610000
KDCY 140135Z AUTO 29016G26KT 10SM OVC032 07/00 A2963 RMK AO2 T00681001
KDCY 140115Z AUTO 29013G19KT 10SM OVC037 07/00 A2962 RMK AO2 T00700000
KDCY 140055Z AUTO 30019G23KT 10SM OVC039 07/00 A2961 RMK AO2 T00730000
KDCY 140035Z AUTO 30012G17KT 10SM BKN041 OVC055 08/M03 A2959 RMK AO2 T00781035
KDCY 140015Z AUTO 26015G20KT 10SM OVC060 08/M04 A2958 RMK AO2 T00761043
KDCY 132355Z AUTO 25013G16KT 10SM OVC060 08/M05 A2955 RMK AO2 T00801048 10085 20051
KDCY 132335Z AUTO 23014KT 10SM OVC060 08/M05 A2954 RMK AO2 T00781049
KDCY 132315Z AUTO 23014KT 10SM OVC060 08/M05 A2954 RMK AO2 T00791051
KDCY 132255Z AUTO 22014G19KT 10SM OVC060 08/M05 A2953 RMK AO2 T00791053
KDCY 132235Z AUTO 24014G19KT 10SM OVC060 08/M05 A2952 RMK AO2 T00811055
KDCY 132215Z AUTO 23013G21KT 10SM OVC060 08/M06 A2952 RMK AO2 T00811057
KDCY 132155Z AUTO 23011G20KT 10SM BKN060 OVC070 08/M06 A2952 RMK AO2 T00831059
KDCY 132135Z AUTO 24016G25KT 10SM OVC050 09/M06 A2952 RMK AO2 T00851062
KDCY 132115Z AUTO 24017G21KT 10SM BKN050 09/M06 A2952 RMK AO2 T00851065
KDCY 132055Z AUTO 23019G23KT 10SM BKN050 08/M07 A2952 RMK AO2 T00801067
KDCY 132035Z AUTO 22017G23KT 10SM SCT050 SCT095 SCT120 08/M07 A2951 RMK AO2 T00791069
KDCY 132015Z AUTO 21015G24KT 10SM SCT050 SCT065 BKN095 07/M07 A2952 RMK AO2 T00701068
KDCY 131955Z AUTO 22020G26KT 10SM SCT065 07/M07 A2953 RMK AO2 T00671071
KDCY 131935Z AUTO 22022G27KT 10SM CLR 07/M07 A2955 RMK AO2 T00701071
KDCY 131915Z AUTO 23021G27KT 10SM CLR 07/M08 A2956 RMK AO2 T00681076
KDCY 131855Z AUTO 22016G29KT 10SM CLR 06/M08 A2954 RMK AO2 T00611079
KDCY 131835Z AUTO 21024G30KT 10SM CLR 06/M08 A2954 RMK AO2 T00631079
KDCY 131815Z AUTO 20018G24KT 10SM SCT120 06/M08 A2956 RMK AO2 T00621084
KDCY 131755Z AUTO 19015G25KT 10SM OVC120 05/M09 A2958 RMK AO2 T00501087 10050 21061
KDCY 131735Z AUTO 19016G26KT 10SM OVC110 05/M09 A2960 RMK AO2 T00471090
KDCY 131715Z AUTO 18020G26KT 10SM OVC110 04/M10 A2962 RMK AO2 T00401097
KDCY 131655Z AUTO 19017G26KT 10SM BKN095 BKN120 04/M10 A2965 RMK AO2 T00371101
KDCY 131635Z AUTO 19019G24KT 10SM BKN085 BKN120 03/M11 A2970 RMK AO2 T00311109
KDCY 131615Z AUTO 20015G22KT 10SM BKN085 03/M11 A2974 RMK AO2 T00261115
KDCY 131555Z AUTO 19016G23KT 10SM BKN075 01/M12 A2974 RMK AO2 T00141118
KDCY 131535Z AUTO 20014G20KT 10SM OVC075 01/M12 A2978 RMK AO2 T00101118
KDCY 131515Z AUTO 19016G21KT 10SM OVC075 00/M12 A2979 RMK AO2 T00031122
KDCY 131455Z AUTO 19015KT 10SM BKN075 00/M12 A2980 RMK AO2 T00001124
KDCY 131435Z AUTO 18013KT 10SM CLR M01/M12 A2982 RMK AO2 T10121118
KDCY 131415Z AUTO 17011KT 10SM SCT075 M03/M11 A2983 RMK AO2 T10281113
KDCY 131355Z AUTO 19012KT 10SM OVC075 M03/M12 A2985 RMK AO2 T10311117
KDCY 131335Z AUTO 19012KT 10SM OVC075 M03/M12 A2986 RMK AO2 T10351120
KDCY 131315Z AUTO 18010KT 10SM OVC075 M04/M12 A2988 RMK AO2 T10411117
KDCY 131255Z AUTO 18008KT 10SM SCT075 M05/M12 A2989 RMK AO2 T10511117
KDCY 131235Z AUTO 17007KT 10SM CLR M06/M12 A2988 RMK AO2 T10561116
KDCY 131215Z AUTO 16007KT 10SM CLR M06/M11 A2990 RMK AO2 T10601112
KDCY 131155Z AUTO 16007KT 10SM CLR M06/M11 A2991 RMK AO2 T10601115 11045 21063
KDCY 131135Z AUTO 17007KT 10SM SCT085 M06/M12 A2991 RMK AO2 T10571116
KDCY 131115Z AUTO 17006KT 10SM CLR M06/M11 A2992 RMK AO2 T10581115
KDCY 131055Z AUTO 17006KT 10SM SCT080 M06/M12 A2993 RMK AO2 T10561121
KDCY 131035Z AUTO 16005KT 10SM SCT090 M05/M12 A2994 RMK AO2 T10531120
KDCY 131015Z AUTO 19007KT 10SM SCT080 M05/M13 A2995 RMK AO2 T10521126
KDCY 130955Z AUTO 20008KT 10SM CLR M05/M13 A2995 RMK AO2 T10471134
KDCY 130935Z AUTO 20009KT 10SM CLR M05/M13 A2995 RMK AO2 T10471133
KDCY 130915Z AUTO 21007KT 10SM CLR M04/M14 A2996 RMK AO2 T10451137
KDCY 130855Z AUTO 21006KT 10SM CLR M04/M14 A2998 RMK AO2 T10451138
KDCY 130835Z AUTO 21005KT 10SM CLR M05/M13 A2998 RMK AO2 T10481134
KDCY 130815Z AUTO 19003KT 10SM CLR M06/M12 A2999 RMK AO2 T10561120
KDCY 130755Z AUTO 15004KT 10SM SCT047 M06/M11 A3000 RMK AO2 T10631112
KDCY 130735Z AUTO 22003KT 10SM SCT049 M05/M13 A3002 RMK AO2 T10511126
KDCY 130715Z AUTO 22004KT 10SM CLR M05/M12 A3003 RMK AO2 T10531123
KDCY 130655Z AUTO 22005KT 10SM CLR M05/M13 A3002 RMK AO2 T10501126
KDCY 130635Z AUTO 22006KT 10SM CLR M05/M13 A3002 RMK AO2 T10501126
KDCY 130615Z AUTO 22007KT 10SM CLR M05/M12 A3004 RMK AO2 T10511122
KDCY 130555Z AUTO 23005KT 10SM CLR M06/M12 A3005 RMK AO2 T10581117 11030 21061 400401061
KDCY 130535Z AUTO 24004KT 10SM CLR M06/M12 A3006 RMK AO2 T10571124
KDCY 130515Z AUTO 24004KT 10SM SCT055 M05/M13 A3007 RMK AO2 T10521126
KDCY 130455Z AUTO 25004KT 10SM SCT055 M06/M12 A3007 RMK AO2 T10571117
KDCY 130435Z AUTO 26003KT 10SM CLR M05/M12 A3007 RMK AO2 T10521121
KDCY 130415Z AUTO 26003KT 10SM CLR M06/M11 A3007 RMK AO2 T10601110
KDCY 130355Z AUTO 26003KT 10SM CLR M05/M13 A3008 RMK AO2 T10491127
KDCY 130335Z AUTO 27003KT 10SM CLR M05/M11 A3008 RMK AO2 T10531115
KDCY 130320Z AUTO 25004KT 10SM CLR M05/M12 A3008 RMK AO2 T10461120
KDCY 130255Z AUTO 27005KT 10SM CLR M04/M12 A3009 RMK AO2 T10431120
KDCY 130235Z AUTO 27005KT 10SM CLR M04/M13 A3009 RMK AO2 T10381130
KDCY 130215Z AUTO 27005KT 10SM CLR M03/M13 A3009 RMK AO2 T10331131
KDCY 130155Z AUTO 27005KT 10SM CLR M03/M12 A3009 RMK AO2 T10351125
KDCY 130130Z AUTO 26004KT 10SM CLR M04/M12 A3010 RMK AO2 T10401118
KDCY 130115Z AUTO 27003KT 10SM CLR M04/M12 A3010 RMK AO2 T10441118
KDCY 130055Z AUTO 28003KT 10SM CLR M04/M14 A3010 RMK AO2 T10361142
KDCY 130035Z AUTO 29003KT 10SM CLR M04/M13 A3010 RMK AO2 T10371135
KDCY 130015Z AUTO 29005KT 10SM CLR M03/M13 A3010 RMK AO2 T10311135
KDCY 122355Z AUTO 30006KT 10SM CLR M03/M13 A3009 RMK AO2 T10301132 11005 21031
KDCY 122335Z AUTO 30006KT 10SM CLR M03/M12 A3009 RMK AO2 T10301125
KDCY 122315Z AUTO 31005KT 10SM CLR M03/M12 A3009 RMK AO2 T10311123
KDCY 122255Z AUTO 31007KT 10SM CLR M02/M13 A3009 RMK AO2 T10251134
KDCY 122235Z AUTO 31009G16KT 10SM CLR M02/M14 A3008 RMK AO2 T10201139
KDCY 122215Z AUTO 31012KT 10SM CLR M02/M14 A3009 RMK AO2 T10171136